Flight Briefing for CPX230

Departure Arrival
Chicago/Rockford International Airport (KRFD)
Click to view FAA NOTAMS
Phoenix Sky Harbor International Airport (KPHX)
Click to view FAA NOTAMS
Departure Time Arrival Time
N/A N/A
Aircraft Distance
B767-300BDSF 1204nm
Departure METAR Arrival METAR
KRFD 212254Z 09016G29KT 10SM OVC055 12/04 A2993 RMK AO2 PK WND 07034/2205 SLP136 T01220044 KPHX 212251Z 24020G29KT 10SM FEW080 FEW250 28/M02 A2961 RMK AO2 PK WND 23029/2246 SLP012 T02781017
Suggested Route
DBQ J144 DSM OVR GLD ALS GUP EAGUL6


View recent IFR Routes data
Notes



Charts and Procedures

Charts for KRFD
No chart available
Charts for KPHX
No chart available

Windy.com Weather Map